Time;durP1;ratioP1;P1;durP2;ratioP2;P2;SDS_P1;SDS_P2;PMS_P1;PMS_P2;Temp;Humidity;BMP_temperature;BMP_pressure;BME280_temperature;BME280_humidity;BME280_pressure;Samples;Min_cycle;Max_cycle;Signal;HPM_P1;HPM_P2
2021/04/22 00:01:55;;;;;;;20.40;4.00;;;;;;;4.90;69.04;101858.81;6246908;28;20054;-77
2021/04/22 00:04:57;;;;;;;30.08;4.57;;;;;;;5.04;68.03;101862.13;6245959;28;20045;-75
2021/04/22 00:07:58;;;;;;;27.52;4.63;;;;;;;4.93;68.66;101859.66;6250669;28;20049;-77
2021/04/22 00:11:00;;;;;;;19.67;4.65;;;;;;;4.91;68.08;101857.97;6250912;28;20504;-75
2021/04/22 00:14:00;;;;;;;30.30;4.15;;;;;;;4.89;68.66;101867.53;6250902;28;20115;-77
2021/04/22 00:17:04;;;;;;;26.25;4.70;;;;;;;4.97;68.85;101863.94;6250842;28;20132;-77
2021/04/22 00:20:07;;;;;;;22.08;5.40;;;;;;;5.01;68.77;101856.97;6250809;28;20056;-77
2021/04/22 00:23:09;;;;;;;30.55;6.03;;;;;;;4.95;69.35;101850.09;6250357;28;20050;-77
2021/04/22 00:26:10;;;;;;;19.67;3.92;;;;;;;4.74;70.50;101852.94;6250819;28;20049;-74
2021/04/22 00:29:11;;;;;;;23.45;4.25;;;;;;;4.62;70.38;101853.94;6250172;28;20072;-77
2021/04/22 00:32:12;;;;;;;29.33;4.78;;;;;;;4.84;70.85;101854.56;6250407;28;20053;-77
2021/04/22 00:35:14;;;;;;;23.45;4.20;;;;;;;4.75;70.63;101858.13;6250182;28;20049;-77
2021/04/22 00:38:15;;;;;;;25.60;3.97;;;;;;;4.51;71.33;101853.22;6250150;28;20486;-77
2021/04/22 00:41:16;;;;;;;23.63;5.25;;;;;;;4.67;71.84;101859.94;6250499;28;20053;-77
2021/04/22 00:44:17;;;;;;;33.40;4.00;;;;;;;4.67;71.86;101862.56;6249981;28;20053;-77
2021/04/22 00:47:18;;;;;;;30.08;5.22;;;;;;;4.71;71.35;101859.03;6250366;28;20057;-77
2021/04/22 00:50:23;;;;;;;28.55;5.40;;;;;;;4.47;72.27;101856.72;6250154;28;20054;-77
2021/04/22 00:53:24;;;;;;;31.75;5.78;;;;;;;4.56;72.10;101860.06;6249416;28;20516;-77
2021/04/22 00:56:25;;;;;;;29.60;5.35;;;;;;;4.70;72.38;101859.06;6242139;28;20038;-76
2021/04/22 00:59:26;;;;;;;22.17;4.60;;;;;;;4.54;72.92;101864.44;6238116;28;20096;-77
2021/04/22 01:02:27;;;;;;;27.33;4.57;;;;;;;4.43;72.52;101862.81;6249611;28;20207;-77
2021/04/22 01:05:33;;;;;;;24.05;4.68;;;;;;;4.41;73.13;101867.19;6249355;28;20049;-77
2021/04/22 01:08:34;;;;;;;27.60;6.65;;;;;;;4.27;74.39;101880.31;6250026;28;20053;-77
2021/04/22 01:11:35;;;;;;;48.05;4.97;;;;;;;4.29;73.17;101873.38;6249467;28;20081;-77
2021/04/22 01:14:36;;;;;;;23.83;4.68;;;;;;;4.26;73.55;101873.38;6249324;28;20536;-76
2021/04/22 01:17:38;;;;;;;26.15;5.07;;;;;;;4.18;74.67;101873.47;6239858;28;20045;-77
2021/04/22 01:20:42;;;;;;;31.77;5.00;;;;;;;4.30;73.90;101867.28;6249353;28;20133;-77
2021/04/22 01:23:43;;;;;;;30.10;5.10;;;;;;;4.46;73.70;101871.47;6249141;28;20497;-77
2021/04/22 01:26:45;;;;;;;27.80;4.60;;;;;;;4.42;74.51;101872.38;6249044;28;20052;-77
2021/04/22 01:29:46;;;;;;;29.45;5.32;;;;;;;4.41;73.77;101870.66;6249010;28;20398;-77
2021/04/22 01:32:47;;;;;;;18.45;4.30;;;;;;;4.47;73.37;101873.19;6248984;28;20132;-77
2021/04/22 01:35:51;;;;;;;23.83;4.80;;;;;;;4.47;74.15;101878.41;6248798;28;20056;-77
2021/04/22 01:38:53;;;;;;;42.55;8.25;;;;;;;4.48;73.88;101877.50;6249031;28;20060;-77
2021/04/22 01:41:53;;;;;;;39.25;4.78;;;;;;;4.62;73.61;101879.97;6249055;28;20056;-76
2021/04/22 01:44:54;;;;;;;28.27;4.78;;;;;;;4.53;73.74;101877.47;6248631;28;20081;-77
2021/04/22 01:47:55;;;;;;;30.10;4.72;;;;;;;4.66;73.06;101879.06;6249124;28;20045;-76
2021/04/22 01:50:57;;;;;;;33.63;4.60;;;;;;;4.64;72.36;101875.63;6248577;28;20417;-77
2021/04/22 01:53:58;;;;;;;21.02;3.70;;;;;;;4.65;72.46;101885.16;6248649;28;20060;-77
2021/04/22 01:56:59;;;;;;;25.83;4.00;;;;;;;4.74;72.19;101886.81;6248630;28;20045;-77
2021/04/22 02:00:01;;;;;;;31.17;3.92;;;;;;;4.70;70.97;101888.56;6248595;28;20053;-77
2021/04/22 02:03:02;;;;;;;15.35;3.60;;;;;;;4.71;72.03;101887.69;6248471;28;20053;-77
2021/04/22 02:06:05;;;;;;;31.63;4.32;;;;;;;4.90;71.38;101884.88;6248462;28;20045;-76
2021/04/22 02:09:07;;;;;;;24.40;3.55;;;;;;;4.67;71.63;101879.91;6248703;28;20057;-77
2021/04/22 02:12:09;;;;;;;16.25;3.75;;;;;;;4.82;71.31;101882.38;6248271;28;20413;-76
2021/04/22 02:15:12;;;;;;;16.98;4.28;;;;;;;4.71;72.06;101887.69;6248214;28;20053;-77
2021/04/22 02:18:13;;;;;;;22.00;4.18;;;;;;;4.85;71.15;101887.53;6248226;28;20052;-77
2021/04/22 02:21:14;;;;;;;24.27;5.50;;;;;;;4.90;71.56;101896.16;6248165;28;20517;-77
2021/04/22 02:24:16;;;;;;;29.58;4.82;;;;;;;4.84;71.56;101896.22;6248119;28;20053;-77
2021/04/22 02:27:17;;;;;;;24.90;4.07;;;;;;;4.90;71.73;101901.34;6247851;28;20427;-77
2021/04/22 02:30:21;;;;;;;21.33;4.55;;;;;;;4.86;71.58;101897.09;6247022;28;20140;-77
2021/04/22 02:33:22;;;;;;;27.63;3.83;;;;;;;4.84;71.31;101891.03;6247478;28;20049;-77
2021/04/22 02:36:23;;;;;;;23.80;4.47;;;;;;;4.76;71.97;101892.84;6247753;28;20073;-77
2021/04/22 02:39:25;;;;;;;35.35;5.45;;;;;;;4.89;71.20;101890.97;6247321;28;20056;-77
2021/04/22 02:42:26;;;;;;;29.40;3.95;;;;;;;4.78;72.51;101883.28;6248139;28;20490;-77
2021/04/22 02:45:28;;;;;;;20.75;3.47;;;;;;;4.81;72.45;101891.03;6247246;28;20064;-77
2021/04/22 02:48:29;;;;;;;14.57;3.22;;;;;;;4.78;73.25;101893.72;6247764;28;20072;-77
2021/04/22 02:51:30;;;;;;;30.95;4.43;;;;;;;4.79;72.75;101891.06;6247676;28;20049;-77
2021/04/22 02:54:32;;;;;;;26.35;3.83;;;;;;;4.89;72.74;101893.56;6247437;28;20553;-77
2021/04/22 02:57:33;;;;;;;28.73;4.72;;;;;;;4.67;72.85;101887.72;6247286;28;20049;-77
2021/04/22 03:00:34;;;;;;;27.02;4.22;;;;;;;4.72;72.91;101888.53;6246999;28;20057;-77
2021/04/22 03:03:34;;;;;;;28.67;4.72;;;;;;;4.65;73.01;101892.09;6246941;28;20045;-77
2021/04/22 03:06:35;;;;;;;27.85;4.47;;;;;;;4.70;72.80;101888.56;6247113;28;20120;-77
2021/04/22 03:09:37;;;;;;;28.40;4.05;;;;;;;4.79;71.59;101888.47;6247078;28;20136;-77
2021/04/22 03:12:38;;;;;;;25.00;3.60;;;;;;;4.85;72.06;101890.13;6246936;28;20056;-76
2021/04/22 03:15:39;;;;;;;22.80;3.53;;;;;;;4.79;72.12;101892.81;6246934;28;20045;-77
2021/04/22 03:18:40;;;;;;;28.48;3.63;;;;;;;4.75;71.57;101898.94;6247081;28;20053;-77
2021/04/22 03:21:41;;;;;;;24.80;3.97;;;;;;;4.67;72.58;101892.94;6246818;28;20057;-77
2021/04/22 03:24:42;;;;;;;22.08;3.95;;;;;;;4.84;71.82;101902.28;6246640;28;20132;-77
2021/04/22 03:27:43;;;;;;;37.97;4.78;;;;;;;4.98;71.86;101896.94;6246865;28;20493;-77
2021/04/22 03:30:44;;;;;;;28.05;4.38;;;;;;;5.02;71.44;101898.63;6246523;28;20054;-77
2021/04/22 03:33:45;;;;;;;27.75;4.57;;;;;;;4.73;72.54;101896.34;6246432;28;20050;-77
2021/04/22 03:36:46;;;;;;;35.28;4.95;;;;;;;4.75;73.96;101902.41;6246637;28;20132;-78
2021/04/22 03:39:48;;;;;;;23.13;3.80;;;;;;;4.81;73.10;101898.84;6246480;28;20135;-77
2021/04/22 03:42:49;;;;;;;20.95;3.97;;;;;;;4.86;73.10;101899.69;6251131;28;20413;-75
2021/04/22 03:45:49;;;;;;;27.38;6.68;;;;;;;4.75;73.39;101894.59;6251427;28;20045;-77
2021/04/22 03:48:50;;;;;;;19.65;3.97;;;;;;;4.67;72.98;101903.34;6251741;28;20133;-77
2021/04/22 03:51:51;;;;;;;15.32;4.72;;;;;;;4.66;72.77;101914.66;6251424;28;20128;-77
2021/04/22 03:54:55;;;;;;;28.50;3.60;;;;;;;4.72;73.43;101917.19;6251295;28;20052;-77
2021/04/22 03:57:56;;;;;;;31.85;4.05;;;;;;;4.51;73.95;101902.66;6251413;28;20059;-76
2021/04/22 04:00:57;;;;;;;35.30;6.43;;;;;;;4.54;73.40;101910.41;6251095;28;20053;-77
2021/04/22 04:03:58;;;;;;;22.58;3.85;;;;;;;4.58;72.92;101906.91;6251076;28;20132;-77
2021/04/22 04:06:59;;;;;;;18.23;4.03;;;;;;;4.49;73.52;101900.06;6250941;28;20054;-77
2021/04/22 04:10:00;;;;;;;23.15;3.88;;;;;;;4.52;73.82;101912.19;6251093;28;20053;-75
2021/04/22 04:13:02;;;;;;;22.42;3.58;;;;;;;4.75;72.88;101914.56;6250712;28;20049;-77
2021/04/22 04:16:03;;;;;;;21.42;3.40;;;;;;;4.81;73.09;101917.09;6250944;28;20046;-77
2021/04/22 04:19:04;;;;;;;21.00;4.95;;;;;;;4.75;73.77;101911.97;6250780;28;20489;-76
2021/04/22 04:22:05;;;;;;;22.40;4.30;;;;;;;4.55;73.53;101925.19;6250707;28;20461;-77
2021/04/22 04:25:09;;;;;;;28.95;4.88;;;;;;;4.65;73.71;101921.59;6250339;28;20127;-77
2021/04/22 04:28:10;;;;;;;33.22;4.65;;;;;;;4.58;73.92;101927.75;6250550;28;20060;-77
2021/04/22 04:31:11;;;;;;;22.73;4.60;;;;;;;4.79;73.28;101922.31;6250318;28;20506;-76
2021/04/22 04:34:12;;;;;;;21.00;4.22;;;;;;;4.72;74.24;101928.47;6250167;28;20060;-76
2021/04/22 04:37:13;;;;;;;29.25;3.80;;;;;;;4.61;74.05;101932.94;6250343;28;20052;-76
2021/04/22 04:40:16;;;;;;;20.40;4.35;;;;;;;4.62;73.94;101934.63;6250170;28;20060;-77
2021/04/22 04:43:17;;;;;;;22.48;3.88;;;;;;;4.53;74.07;101942.53;6250215;28;20054;-77
2021/04/22 04:46:18;;;;;;;29.48;4.10;;;;;;;4.55;74.85;101940.81;6250136;28;20781;-77
2021/04/22 04:49:19;;;;;;;29.75;4.18;;;;;;;4.54;74.42;101936.44;6250405;28;20076;-77
2021/04/22 04:52:20;;;;;;;30.52;4.65;;;;;;;4.51;75.27;101936.50;6249727;28;20053;-77
2021/04/22 04:55:21;;;;;;;29.63;3.90;;;;;;;4.62;74.63;101942.44;6250096;28;20053;-77
2021/04/22 04:58:22;;;;;;;22.15;4.40;;;;;;;4.44;74.72;101934.81;6249933;28;20111;-77
2021/04/22 05:01:23;;;;;;;33.53;4.35;;;;;;;4.40;74.79;101939.16;6249634;28;20049;-78
2021/04/22 05:04:24;;;;;;;20.80;3.35;;;;;;;4.38;74.14;101940.09;6249696;28;20486;-77
2021/04/22 05:07:25;;;;;;;32.47;4.25;;;;;;;4.39;74.51;101957.41;6249500;28;20056;-77
2021/04/22 05:10:27;;;;;;;24.38;4.20;;;;;;;4.56;75.06;101955.53;6250010;28;20060;-77
2021/04/22 05:13:28;;;;;;;22.58;4.03;;;;;;;4.39;75.22;101963.47;6249437;28;20076;-77
2021/04/22 05:16:29;;;;;;;26.33;4.40;;;;;;;4.44;74.56;101971.25;6249515;28;20046;-77
2021/04/22 05:19:30;;;;;;;20.92;4.03;;;;;;;4.64;74.38;101965.88;6249431;28;20630;-77
2021/04/22 05:22:31;;;;;;;30.02;4.25;;;;;;;4.53;74.69;101964.22;6249804;28;20188;-77
2021/04/22 05:25:32;;;;;;;21.27;4.80;;;;;;;4.55;73.56;101972.91;6249244;28;20060;-77
2021/04/22 05:28:34;;;;;;;22.45;4.82;;;;;;;4.52;73.41;101966.84;6246745;28;20049;-77
2021/04/22 05:31:35;;;;;;;17.45;3.55;;;;;;;4.61;73.62;101971.13;6280995;23;20052;-71
2021/04/22 05:34:37;;;;;;;16.15;3.47;;;;;;;4.55;74.07;101975.50;6272711;28;20049;-71
2021/04/22 05:37:38;;;;;;;19.35;3.55;;;;;;;4.46;73.41;101972.13;6272511;28;20061;-71
2021/04/22 05:40:40;;;;;;;29.33;4.20;;;;;;;4.78;73.31;101980.50;6256963;28;20053;-71
2021/04/22 05:43:41;;;;;;;21.80;3.50;;;;;;;4.52;73.44;101985.06;6248736;28;20049;-71
2021/04/22 05:46:42;;;;;;;17.00;3.65;;;;;;;4.51;74.25;101984.22;6247840;28;20129;-71
2021/04/22 05:49:43;;;;;;;23.20;5.03;;;;;;;4.71;73.01;101989.22;6248949;28;20057;-71
2021/04/22 05:52:44;;;;;;;21.80;3.97;;;;;;;4.87;72.22;101989.97;6248475;28;20045;-71
2021/04/22 05:55:46;;;;;;;20.42;3.75;;;;;;;5.08;72.06;101992.34;6236456;28;20053;-71
2021/04/22 05:58:47;;;;;;;29.67;4.63;;;;;;;5.02;72.26;101986.34;6223777;28;20076;-71
2021/04/22 06:01:48;;;;;;;36.63;5.22;;;;;;;5.17;72.20;101987.91;6223635;28;20050;-72
2021/04/22 06:04:49;;;;;;;18.92;3.88;;;;;;;5.22;71.36;101989.59;6223012;28;20141;-72
2021/04/22 06:07:50;;;;;;;21.77;3.25;;;;;;;5.19;71.40;101991.38;6228708;28;20100;-71
2021/04/22 06:10:52;;;;;;;20.00;3.53;;;;;;;5.40;71.37;101988.50;6234784;28;20077;-72
2021/04/22 06:13:52;;;;;;;46.45;5.60;;;;;;;5.40;70.97;101996.31;6233178;28;20378;-71
2021/04/22 06:16:53;;;;;;;26.90;4.28;;;;;;;5.62;70.22;102006.50;6234121;28;20137;-72
2021/04/22 06:19:54;;;;;;;16.20;3.20;;;;;;;5.77;69.23;102007.19;6237196;28;20060;-72
2021/04/22 06:22:55;;;;;;;25.05;3.40;;;;;;;5.66;69.36;102002.97;6247481;28;20049;-72
2021/04/22 06:25:57;;;;;;;25.70;3.33;;;;;;;5.80;68.78;102001.91;6247975;28;20103;-71
2021/04/22 06:29:00;;;;;;;25.17;3.28;;;;;;;5.80;69.89;102014.09;6237197;28;20057;-71
2021/04/22 06:32:01;;;;;;;23.00;3.53;;;;;;;6.07;68.17;102028.53;6235078;28;20403;-71
2021/04/22 06:35:02;;;;;;;31.02;4.93;;;;;;;5.87;69.20;102020.09;6239100;28;20140;-72
2021/04/22 06:38:03;;;;;;;19.90;3.40;;;;;;;5.85;68.88;102014.88;6247588;28;20158;-71
2021/04/22 06:41:05;;;;;;;19.80;3.65;;;;;;;5.82;69.91;102023.63;6247393;28;20041;-72
2021/04/22 06:44:06;;;;;;;28.50;3.00;;;;;;;6.21;67.86;102023.97;6247338;28;20061;-71
2021/04/22 06:47:07;;;;;;;23.48;3.22;;;;;;;6.19;67.58;102019.69;6247550;28;20049;-72
2021/04/22 06:50:11;;;;;;;25.42;3.75;;;;;;;6.22;68.08;102024.84;6247492;28;20081;-71
2021/04/22 06:53:12;;;;;;;25.60;3.15;;;;;;;6.13;68.16;102033.66;6244861;28;20053;-72
2021/04/22 06:56:14;;;;;;;24.83;3.50;;;;;;;6.21;67.75;102017.91;6238399;28;20072;-72
2021/04/22 06:59:16;;;;;;;21.65;3.08;;;;;;;6.21;67.34;102016.16;6230525;28;20060;-71
2021/04/22 07:02:17;;;;;;;39.15;3.40;;;;;;;6.33;66.21;102036.00;6238977;28;20041;-71
2021/04/22 07:05:18;;;;;;;38.58;3.42;;;;;;;6.18;66.71;102031.88;6246400;28;20057;-72
2021/04/22 07:08:19;;;;;;;21.42;3.83;;;;;;;6.45;65.97;102020.16;6247062;28;20527;-72
2021/04/22 07:11:21;;;;;;;30.13;3.22;;;;;;;6.42;66.73;102021.94;6246723;28;20054;-72
2021/04/22 07:14:22;;;;;;;18.15;2.65;;;;;;;6.47;64.54;102014.91;6246319;28;20099;-72
2021/04/22 07:17:23;;;;;;;22.98;3.30;;;;;;;6.48;64.00;102022.69;6232396;28;20125;-71
2021/04/22 07:20:24;;;;;;;18.52;3.25;;;;;;;6.59;62.77;102038.22;6245685;28;20132;-71
2021/04/22 07:23:27;;;;;;;22.73;3.22;;;;;;;6.60;62.98;102032.97;6246587;28;20099;-71
2021/04/22 07:26:29;;;;;;;20.98;3.72;;;;;;;6.78;62.68;102023.97;6239451;28;20045;-73
2021/04/22 07:29:30;;;;;;;27.17;2.92;;;;;;;6.95;61.80;102030.63;6228840;28;20464;-72
2021/04/22 07:32:31;;;;;;;25.90;3.15;;;;;;;6.89;60.99;102036.81;6246330;28;20049;-71
2021/04/22 07:35:32;;;;;;;21.13;2.80;;;;;;;7.00;61.06;102032.28;6225365;28;20066;-72
2021/04/22 07:38:33;;;;;;;23.95;2.60;;;;;;;6.98;61.56;102035.81;6221535;28;20072;-72
2021/04/22 07:41:35;;;;;;;20.23;2.63;;;;;;;6.91;60.72;102049.88;6221580;28;20493;-71
2021/04/22 07:44:36;;;;;;;20.92;3.63;;;;;;;7.02;60.56;102042.69;6246139;28;20049;-73
2021/04/22 07:47:37;;;;;;;29.17;4.07;;;;;;;6.84;60.83;102056.94;6246184;28;20045;-72
2021/04/22 07:50:39;;;;;;;19.70;2.78;;;;;;;6.87;61.25;102046.44;6246222;28;20576;-72
2021/04/22 07:53:40;;;;;;;25.20;3.20;;;;;;;7.33;60.14;102046.47;6245913;28;20053;-72
2021/04/22 07:56:41;;;;;;;20.48;4.82;;;;;;;7.44;60.86;102050.63;6246207;28;20080;-72
2021/04/22 07:59:42;;;;;;;15.70;2.63;;;;;;;7.59;59.67;102053.81;6237046;28;20060;-73
2021/04/22 08:02:43;;;;;;;23.92;3.15;;;;;;;7.58;57.61;102054.69;6221545;28;20054;-72
2021/04/22 08:05:45;;;;;;;17.92;2.85;;;;;;;7.57;58.42;102066.06;6220926;28;20050;-73
2021/04/22 08:08:46;;;;;;;22.65;3.50;;;;;;;7.45;58.80;102066.31;6221847;28;20056;-72
2021/04/22 08:11:47;;;;;;;21.30;2.60;;;;;;;7.29;60.03;102081.41;6219823;28;20050;-73
2021/04/22 08:14:48;;;;;;;19.55;3.53;;;;;;;7.39;59.18;102076.88;6220920;28;20532;-69
2021/04/22 08:17:49;;;;;;;24.73;4.72;;;;;;;7.46;59.88;102085.50;6221274;28;20137;-72
2021/04/22 08:20:50;;;;;;;19.65;2.92;;;;;;;7.42;59.63;102082.06;6220817;28;20517;-72
2021/04/22 08:23:51;;;;;;;18.08;2.50;;;;;;;7.83;57.21;102077.78;6220480;28;20495;-72
2021/04/22 08:26:53;;;;;;;22.75;3.00;;;;;;;7.54;58.98;102073.09;6224600;28;20053;-72
2021/04/22 08:29:54;;;;;;;19.25;2.88;;;;;;;7.68;57.14;102085.94;6236460;28;20108;-73
2021/04/22 08:32:55;;;;;;;23.45;2.97;;;;;;;7.79;55.96;102076.09;6235088;28;20395;-73
2021/04/22 08:35:58;;;;;;;13.68;2.92;;;;;;;7.82;57.17;102081.28;6233594;28;20046;-73
2021/04/22 08:38:59;;;;;;;23.50;3.00;;;;;;;7.62;58.07;102084.28;6225608;28;20053;-73
2021/04/22 08:42:03;;;;;;;25.80;2.65;;;;;;;7.69;57.62;102091.13;6225365;28;20132;-72
2021/04/22 08:45:05;;;;;;;22.25;3.08;;;;;;;7.65;56.02;102094.69;6224780;28;20049;-74
2021/04/22 08:48:06;;;;;;;15.20;2.50;;;;;;;7.74;57.44;102096.28;6225583;28;20517;-72
2021/04/22 08:51:09;;;;;;;21.10;4.15;;;;;;;8.04;56.05;102089.53;6225052;28;20064;-72
2021/04/22 08:54:10;;;;;;;20.55;2.88;;;;;;;8.07;55.03;102081.63;6224750;28;20053;-72
2021/04/22 08:57:12;;;;;;;16.75;2.97;;;;;;;8.06;55.37;102088.63;6225039;28;20057;-72
2021/04/22 09:00:17;;;;;;;22.98;2.60;;;;;;;8.07;54.08;102089.47;6225003;28;20490;-73
2021/04/22 09:03:18;;;;;;;19.88;3.72;;;;;;;8.29;55.37;102092.50;6222614;28;20136;-72
2021/04/22 09:06:19;;;;;;;18.48;2.63;;;;;;;8.31;56.36;102098.53;6225218;28;20509;-72
2021/04/22 09:09:20;;;;;;;8.75;1.88;;;;;;;8.16;54.13;102097.13;6224819;28;20050;-71
2021/04/22 09:12:22;;;;;;;11.75;2.20;;;;;;;8.39;53.84;102094.03;6224448;28;20053;-72
2021/04/22 09:15:24;;;;;;;13.98;2.80;;;;;;;8.53;54.68;102101.56;6224248;28;20054;-72
2021/04/22 09:18:25;;;;;;;14.32;2.10;;;;;;;8.35;53.81;102097.59;6224427;28;20561;-73
2021/04/22 09:21:29;;;;;;;20.25;2.58;;;;;;;8.28;54.46;102101.25;6224524;28;20054;-71
2021/04/22 09:24:30;;;;;;;31.40;3.85;;;;;;;8.05;56.12;102102.59;6223732;28;20052;-72
2021/04/22 09:27:32;;;;;;;17.33;2.88;;;;;;;8.14;56.36;102110.25;6224477;28;20061;-72
2021/04/22 09:30:37;;;;;;;15.43;2.90;;;;;;;8.20;57.18;102101.41;6224154;28;20498;-72
2021/04/22 09:33:40;;;;;;;17.15;3.63;;;;;;;8.50;56.36;102118.25;6223905;28;20525;-73
2021/04/22 09:36:47;;;;;;;20.27;2.53;;;;;;;8.36;53.58;102109.81;6224222;28;20050;-74
2021/04/22 09:39:49;;;;;;;21.48;2.47;;;;;;;8.39;53.33;102115.00;6223146;28;20525;-72
2021/04/22 09:42:52;;;;;;;18.55;3.15;;;;;;;8.22;53.99;102101.38;6223527;28;20064;-73
2021/04/22 09:45:53;;;;;;;16.35;2.58;;;;;;;8.58;54.38;102113.69;6224341;28;20060;-72
2021/04/22 09:48:54;;;;;;;12.73;2.60;;;;;;;8.69;53.56;102097.72;6224046;28;20054;-72
2021/04/22 09:52:06;;;;;;;15.38;2.30;;;;;;;8.78;54.97;102112.38;6223868;28;20060;-71
2021/04/22 09:55:10;;;;;;;18.15;2.97;;;;;;;8.54;55.34;102106.81;6223288;28;20058;-72
2021/04/22 09:58:12;;;;;;;17.85;2.13;;;;;;;8.58;54.14;102099.72;6223933;28;20046;-72
2021/04/22 10:01:21;;;;;;;14.43;2.85;;;;;;;9.11;51.07;102108.91;6223880;28;20050;-74
2021/04/22 10:04:30;;;;;;;19.65;2.92;;;;;;;8.92;50.49;102107.66;6221075;28;20461;-72
2021/04/22 10:07:33;;;;;;;16.02;2.40;;;;;;;8.76;51.22;102103.66;6223586;28;20046;-72
2021/04/22 10:10:36;;;;;;;9.18;1.80;;;;;;;8.81;52.37;102113.16;6223523;28;20053;-73
2021/04/22 10:13:44;;;;;;;11.18;2.20;;;;;;;8.88;52.14;102135.69;6222660;28;20050;-71
2021/04/22 10:16:45;;;;;;;29.70;3.35;;;;;;;8.63;53.04;102100.50;6223208;28;20100;-73
2021/04/22 10:19:57;;;;;;;17.15;2.63;;;;;;;8.96;52.83;102105.81;6223376;28;20049;-72
2021/04/22 10:22:59;;;;;;;12.15;2.17;;;;;;;9.00;52.17;102113.56;6222206;28;20069;-73
2021/04/22 10:26:00;;;;;;;12.30;2.10;;;;;;;9.17;49.38;102110.50;6223096;28;20054;-71
2021/04/22 10:29:03;;;;;;;12.85;2.92;;;;;;;9.31;49.54;102110.13;6229765;28;20046;-72
2021/04/22 10:32:04;;;;;;;11.75;3.00;;;;;;;9.58;48.66;102119.94;6246754;28;20076;-72
2021/04/22 10:35:06;;;;;;;16.52;2.00;;;;;;;9.56;48.12;102110.38;6227162;28;20049;-75
2021/04/22 10:38:08;;;;;;;14.50;1.83;;;;;;;9.54;47.67;102135.81;6222169;28;20046;-72
2021/04/22 10:41:09;;;;;;;14.73;2.67;;;;;;;9.54;46.86;102114.81;6222487;28;20093;-73
2021/04/22 10:44:11;;;;;;;14.20;2.22;;;;;;;9.40;50.09;102116.03;6221801;28;20058;-72
2021/04/22 10:47:12;;;;;;;11.45;1.95;;;;;;;9.70;47.29;102126.59;6222457;28;20046;-72
2021/04/22 10:50:15;;;;;;;15.05;2.08;;;;;;;9.68;48.86;102112.66;6222217;28;20144;-72
2021/04/22 10:53:19;;;;;;;26.08;3.50;;;;;;;10.09;49.83;102113.25;6221421;28;20046;-72
2021/04/22 10:56:29;;;;;;;13.88;3.42;;;;;;;10.02;48.41;102109.06;6222490;28;20064;-72
2021/04/22 10:59:33;;;;;;;13.98;3.08;;;;;;;10.02;49.15;102114.31;6221936;28;20050;-72
2021/04/22 11:02:42;;;;;;;15.70;2.97;;;;;;;9.94;49.52;102105.78;6222143;28;20050;-72
2021/04/22 11:05:53;;;;;;;15.73;2.95;;;;;;;10.24;47.34;102109.28;6219447;28;20057;-73
2021/04/22 11:08:55;;;;;;;12.35;2.03;;;;;;;10.03;47.34;102121.28;6221886;28;20079;-73
2021/04/22 11:12:00;;;;;;;11.43;1.88;;;;;;;9.63;49.44;102112.78;6221201;28;20053;-72
2021/04/22 11:15:03;;;;;;;11.15;2.45;;;;;;;9.99;48.97;102112.66;6220793;28;20050;-72
2021/04/22 11:18:09;;;;;;;14.13;2.28;;;;;;;10.22;46.89;102114.59;6221542;28;20053;-73
2021/04/22 11:21:22;;;;;;;19.73;2.88;;;;;;;10.32;47.43;102102.09;6221525;28;20485;-70
2021/04/22 11:24:28;;;;;;;17.65;3.30;;;;;;;10.38;45.44;102112.41;6220858;28;20050;-71
2021/04/22 11:27:32;;;;;;;11.02;2.20;;;;;;;10.35;45.87;102097.56;6221677;28;20053;-73
2021/04/22 11:30:35;;;;;;;14.40;2.70;;;;;;;10.68;45.60;102113.22;6221225;28;20081;-71
2021/04/22 11:33:36;;;;;;;15.68;2.67;;;;;;;10.26;46.26;102103.09;6225461;28;20449;-73
2021/04/22 11:36:46;;;;;;;12.18;2.60;;;;;;;10.82;45.88;102126.78;6221286;28;20050;-73
2021/04/22 11:39:48;;;;;;;13.82;2.30;;;;;;;10.50;45.52;102116.44;6221084;28;20054;-73
2021/04/22 11:42:51;;;;;;;15.07;2.50;;;;;;;10.71;44.15;102110.47;6250873;23;20057;-69
2021/04/22 11:45:54;;;;;;;10.20;2.25;;;;;;;11.50;43.67;102112.22;6264876;28;20493;-71
2021/04/22 11:48:55;;;;;;;14.07;2.50;;;;;;;11.56;42.62;102119.03;6254320;28;20098;-70
2021/04/22 11:51:57;;;;;;;11.88;2.53;;;;;;;10.76;45.27;102115.59;6256130;28;20057;-69
2021/04/22 11:54:58;;;;;;;13.65;2.95;;;;;;;10.51;48.09;102124.25;6222149;28;20053;-69
2021/04/22 11:58:06;;;;;;;19.48;3.10;;;;;;;10.97;46.66;102121.94;6220910;28;20053;-69
2021/04/22 12:01:10;;;;;;;14.85;2.65;;;;;;;11.45;46.99;102116.78;6220597;28;20057;-71
2021/04/22 12:04:11;;;;;;;12.77;2.67;;;;;;;12.01;44.26;102123.56;6238767;28;20460;-72
2021/04/22 12:07:13;;;;;;;13.50;2.67;;;;;;;11.38;43.85;102129.28;6250571;28;20077;-69
2021/04/22 12:10:17;;;;;;;13.55;2.90;;;;;;;11.13;44.57;102131.91;6250228;28;20057;-71
2021/04/22 12:13:21;;;;;;;9.82;2.20;;;;;;;10.90;47.22;102127.41;6226397;28;20054;-74
2021/04/22 12:16:23;;;;;;;15.27;3.15;;;;;;;11.15;46.08;102130.06;6225547;28;20132;-70
2021/04/22 12:19:25;;;;;;;17.42;3.15;;;;;;;10.66;47.76;102149.19;6225947;28;20187;-71
2021/04/22 12:22:33;;;;;;;13.77;3.63;;;;;;;10.36;48.85;102141.34;6225300;28;20422;-71
2021/04/22 12:25:34;;;;;;;13.75;2.92;;;;;;;10.62;49.12;102142.31;6242120;28;20056;-72
2021/04/22 12:28:34;;;;;;;12.30;2.85;;;;;;;10.69;48.44;102146.47;6250056;28;20049;-70
2021/04/22 12:31:38;;;;;;;20.02;3.50;;;;;;;10.75;47.93;102151.53;6249986;28;20079;-72
2021/04/22 12:34:39;;;;;;;13.00;2.72;;;;;;;11.61;45.31;102146.06;6233724;28;20046;-70
2021/04/22 12:37:40;;;;;;;10.77;2.70;;;;;;;11.70;45.17;102140.47;6225145;28;20445;-72
2021/04/22 12:40:41;;;;;;;12.02;2.97;;;;;;;11.37;44.52;102148.63;6225426;28;20058;-72
2021/04/22 12:43:43;;;;;;;12.07;3.20;;;;;;;11.31;44.72;102143.59;6224290;28;20053;-70
2021/04/22 12:46:45;;;;;;;24.77;4.70;;;;;;;10.98;45.41;102142.91;6225496;28;20132;-70
2021/04/22 12:49:48;;;;;;;23.13;3.28;;;;;;;11.28;44.40;102146.31;6224959;28;20054;-71
2021/04/22 12:52:59;;;;;;;10.32;2.67;;;;;;;11.04;45.84;102144.50;6224901;28;20053;-70
2021/04/22 12:56:02;;;;;;;8.95;2.65;;;;;;;11.40;45.91;102151.16;6224828;28;20054;-72
2021/04/22 12:59:06;;;;;;;9.13;2.20;;;;;;;12.22;47.23;102143.88;6224356;28;20509;-73
2021/04/22 13:02:11;;;;;;;22.42;3.78;;;;;;;12.77;43.23;102132.94;6225150;28;20129;-72
2021/04/22 13:05:14;;;;;;;9.63;2.90;;;;;;;12.74;42.38;102133.91;6224699;28;20061;-72
2021/04/22 13:08:15;;;;;;;11.35;2.67;;;;;;;11.86;44.76;102138.19;6225239;28;20049;-70
2021/04/22 13:11:19;;;;;;;10.23;2.88;;;;;;;11.49;46.83;102134.19;6231572;28;20494;-70
2021/04/22 13:14:22;;;;;;;50.50;4.13;;;;;;;11.93;43.78;102135.25;6248501;28;20525;-74
2021/04/22 13:17:27;;;;;;;10.27;2.30;;;;;;;11.96;42.72;102133.44;6249216;28;20486;-73
2021/04/22 13:20:29;;;;;;;8.10;2.25;;;;;;;11.70;44.03;102135.19;6249469;28;20053;-74
2021/04/22 13:23:32;;;;;;;16.52;3.25;;;;;;;11.51;44.91;102131.50;6248563;28;20467;-73
2021/04/22 13:26:33;;;;;;;12.27;2.45;;;;;;;11.08;46.45;102146.09;6248957;28;20409;-71
2021/04/22 13:29:43;;;;;;;12.27;2.90;;;;;;;11.13;46.85;102142.44;6249351;28;20057;-71
2021/04/22 13:32:45;;;;;;;12.25;2.65;;;;;;;12.02;46.99;102135.81;6249392;28;20516;-70
2021/04/22 13:35:47;;;;;;;10.27;3.00;;;;;;;12.44;44.93;102130.69;6248554;28;20049;-73
2021/04/22 13:38:59;;;;;;;13.98;2.40;;;;;;;11.97;45.47;102130.72;6249384;28;20046;-73
2021/04/22 13:42:01;;;;;;;14.70;4.03;;;;;;;11.72;45.63;102149.19;6248983;28;20506;-74
2021/04/22 13:45:10;;;;;;;11.02;2.65;;;;;;;12.11;47.45;102140.75;6248330;28;20103;-72
2021/04/22 13:48:15;;;;;;;13.60;2.95;;;;;;;12.31;42.63;102137.34;6248823;28;20049;-72
2021/04/22 13:51:16;;;;;;;17.00;2.97;;;;;;;12.30;43.58;102147.03;6249444;28;20045;-74
2021/04/22 13:54:18;;;;;;;19.23;2.70;;;;;;;12.56;43.61;102158.38;6248451;28;20045;-73
2021/04/22 13:57:21;;;;;;;9.38;2.65;;;;;;;11.96;44.57;102151.88;6248649;28;20049;-73
2021/04/22 14:00:22;;;;;;;14.13;2.60;;;;;;;11.63;44.96;102163.53;6248675;28;20164;-73
2021/04/22 14:03:32;;;;;;;11.48;2.80;;;;;;;11.40;45.40;102143.28;6248016;28;20441;-73
2021/04/22 14:06:35;;;;;;;14.45;2.65;;;;;;;11.34;46.38;102148.72;6248529;28;20049;-72